• Join FlightAware (Why Join?)
  • Login
  • US Flag 
07:30AM EST


 

Airport Tracker/Info


-or-


 

Live Flight TrackerFlight Track Log ✈ N27XP ✈ 04-Jun-2014 ✈ KSOP - KJFK

Flight Track Log - Related Links

Times and Time Zones

All times are in EDT time to prevent confusion due to time zone crossing. See the N27XP flight status page for this flight to view local times or setup timezone preferences in your user account.

Time Position Orientation Groundspeed Altitude Reporting Facility
EDT Latitude Longitude Course Direction KTS MPH feet Rate Location/Type
12:02PM 35.3464 -79.3989 71° East 197 227 6,100  Level Washington Center
12:03PM 35.4025 -79.4042 356° North 216 249 8,500 2,452 Climbing Washington Center
12:04PM 35.4628 -79.4147 352° North 239 275 10,800 2,379 Climbing Washington Center
12:05PM 35.5250 -79.4228 354° North 242 278 13,100 2,239 Climbing Washington Center
12:05PM 35.5292 -79.4231 357° North 228 262 13,300 1,890 Climbing Washington Center
12:06PM 35.6027 -79.0423 38° Northeast  Level Estimated
12:06PM 35.6067 -79.4192 North 240 276 15,400  Level Washington Center
12:07PM 35.6756 -78.9726 71° East  Level Estimated
12:07PM 35.6342 -79.3386 67° East 245 282 17,100  Level Washington Center
12:08PM 35.6583 -79.2297 75° East 263 303 19,100 1,869 Climbing Washington Center
12:09PM 35.6828 -79.1183 75° East 292 336 20,900 1,785 Climbing Washington Center
12:10PM 35.7067 -79.0094 75° East 315 362 22,700 1,059 Climbing Washington Center
12:11PM 35.7308 -78.8903 76° East 339 390 23,000 151 Climbing Washington Center
12:12PM 35.7592 -78.7736 73° East 362 417 23,000 496 Level Washington Center
12:13PM 35.7900 -78.6314 75° East 402 463 24,000 992 Climbing Washington Center
12:14PM 35.8183 -78.4917 76° East 414 476 25,000 508 Climbing Washington Center
12:15PM 35.8469 -78.3467 76° East 419 482 25,000 353 Level Washington Center
12:16PM 35.8797 -78.1864 76° East 433 498 25,700 1,438 Climbing Washington Center
12:17PM 35.9075 -78.0614 75° East 426 490 27,900 1,934 Climbing Washington Center
12:18PM 35.9350 -77.9264 76° East 413 475 29,600 1,613 Climbing Washington Center
12:19PM 35.9606 -77.7964 76° East 402 463 31,100 1,475 Climbing Washington Center
12:20PM 36.0025 -77.6717 67° East 386 444 32,500 1,377 Climbing Washington Center
12:21PM 36.0625 -77.5731 53° Northeast 361 415 33,900 1,050 Climbing Washington Center
12:22PM 36.1267 -77.4719 52° Northeast 361 415 34,600 706 Climbing Washington Center
12:23PM 36.1869 -77.3600 56° Northeast 366 421 35,300 645 Climbing Washington Center
12:24PM 36.2550 -77.2558 51° Northeast 371 427 35,900 555 Climbing Washington Center
12:25PM 36.3211 -77.1492 52° Northeast 381 438 36,400 555 Climbing Washington Center
12:26PM 36.4056 -77.0758 35° Northeast 374 430 37,000 298 Climbing Washington Center
12:27PM 36.4922 -76.9950 37° Northeast 374 430 37,000  Level Washington Center
12:28PM 36.5722 -76.9161 38° Northeast 389 448 37,000  Level Washington Center
12:29PM 36.6586 -76.8322 38° Northeast 394 453 37,000  Level Washington Center
12:30PM 36.7472 -76.7456 38° Northeast 389 448 37,000  Level Washington Center
12:31PM 36.8336 -76.6611 38° Northeast 394 453 37,000  Level Washington Center
12:32PM 36.9197 -76.5792 37° Northeast 394 453 37,000  Level Washington Center
12:33PM 37.0058 -76.4969 37° Northeast 394 453 37,000  Level Washington Center
12:34PM 37.0942 -76.4119 37° Northeast 389 448 37,000  Level Washington Center
12:35PM 37.1822 -76.3269 38° Northeast 389 448 37,000  Level Washington Center
12:36PM 37.2683 -76.2417 38° Northeast 389 448 37,000  Level Washington Center
12:37PM 37.3522 -76.1589 38° Northeast 389 448 37,000  Level Washington Center
12:38PM 37.4422 -76.0811 34° Northeast 389 448 37,000  Level Washington Center
12:39PM 37.5258 -75.9978 38° Northeast 389 448 37,000  Level Washington Center
12:40PM 37.6117 -75.9117 38° Northeast 389 448 37,000  Level Washington Center
12:41PM 37.6994 -75.8306 36° Northeast 389 448 37,000  Level Washington Center
12:42PM 37.7831 -75.7417 40° Northeast 389 448 37,000  Level Washington Center
12:43PM 37.8686 -75.6575 38° Northeast 389 448 37,000  Level Washington Center
12:44PM 37.9561 -75.5733 37° Northeast 389 448 37,000  Level Washington Center
12:45PM 38.0417 -75.4864 39° Northeast 389 448 37,000 -51 Level Washington Center
12:46PM 38.1333 -75.4256 28° Northeast 379 436 36,900 -650 Descending Washington Center
12:47PM 38.2292 -75.3617 28° Northeast 379 436 35,700 -942 Descending Washington Center
12:48PM 38.3333 -75.2872 29° Northeast 382 440 35,000 -344 Descending Washington Center
12:49PM 38.4331 -75.2258 26° Northeast 382 440 35,000  Level Washington Center
12:50PM 38.5308 -75.1592 28° Northeast 387 445 35,000  Level Washington Center
12:51PM 38.6244 -75.1108 22° Northeast 392 451 35,000  Level Washington Center
12:52PM 38.7264 -75.0489 25° Northeast 397 457 35,000 -639 Level Washington Center
12:53PM 38.8283 -74.9867 25° Northeast 397 457 33,700 -1,563 Descending Washington Center
12:54PM 38.9239 -74.9111 32° Northeast 390 449 31,900 -1,765 Descending Washington Center
12:55PM 39.0319 -74.8461 25° Northeast 389 448 30,200 -1,672 Descending Washington Center
12:56PM 39.1250 -74.7703 32° Northeast 412 474 28,500 -1,835 Descending Washington Center
12:57PM 39.2286 -74.6592 40° Northeast 444 511 26,500 -2,000 Descending Washington Center
12:59PM 39.3953 -74.4775 40° Northeast 456 525 22,800 -2,058 Descending New York Center
01:00PM 39.5014 -74.3597 41° Northeast 445 512 20,600 -1,839 Descending New York Center
01:01PM 39.5942 -74.2586 40° Northeast 421 484 19,000 -1,548 Descending New York Center
01:02PM 39.6867 -74.1575 40° Northeast 417 480 17,400 -1,776 Descending New York Center
01:03PM 39.7767 -74.0564 41° Northeast 413 475 15,300 -1,935 Descending New York Center
01:04PM 39.8683 -73.9656 37° Northeast 397 457 13,400 -1,776 Descending New York Center
01:05PM 39.9644 -73.8981 28° Northeast 377 434 11,600 -1,143 Descending New York Center
01:06PM 40.0406 -73.8325 33° Northeast 317 365 11,000 -823 Descending New York Center
01:07PM 40.1044 -73.7683 38° Northeast 298 343 9,900 -1,459 Descending New York Center
01:08PM 40.1667 -73.7000 40° Northeast 304 350 8,300 -2,000 Descending New York TRACON
01:09PM 40.2167 -73.6333 46° Northeast 287 330 6,300 -2,000 Descending New York TRACON
01:10PM 40.2833 -73.6000 21° North 276 318 4,300 -1,104 Descending New York TRACON
01:11PM 40.3167 -73.7000 294° West 255 293 4,000 -144 Descending New York TRACON
01:12PM 40.3333 -73.7833 285° West 258 297 4,000  Level New York TRACON
01:13PM 40.3667 -73.8667 298° West 241 277 4,000 -350 Level New York TRACON
01:14PM 40.4000 -73.9333 303° West 193 222 3,300 -500 Descending New York TRACON
01:15PM 40.4333 -73.9833 311° West 180 207 3,000 -150 Descending New York TRACON
01:16PM 40.4833 -73.9833 360° North 178 205 3,000  Level New York TRACON
01:17PM 40.5167 -73.9667 21° North 164 189 3,000 -446 Level New York TRACON
01:18PM 40.5500 -73.9333 37° Northeast 175 201 2,100 -756 Descending New York TRACON
01:19PM 40.6000 -73.9000 27° Northeast 170 196 1,500 -300 Descending New York TRACON
01:20PM 40.6333 -73.8667 37° Northeast 159 183 1,500 -298 Level New York TRACON
01:21PM 40.6667 -73.8333 37° Northeast 145 167 900 -497 Descending New York TRACON
01:23PM 40.6422 -73.7628 115° Southeast 141 162 200 -433 Descending New York Center
01:25PM 40.6333 -73.7667 North  Level FlightAware Approximate